sensor_id;sensor_type;location;lat;lon;timestamp;temperature;humidity
17529;DHT22;8882;53.192;8.184;2023-08-01T04:30:28;15.70;99.90
17529;DHT22;8882;53.192;8.184;2023-08-01T04:32:53;15.70;99.90
17529;DHT22;8882;53.192;8.184;2023-08-01T04:35:19;15.80;99.90
17529;DHT22;8882;53.192;8.184;2023-08-01T04:37:44;15.70;99.90
17529;DHT22;8882;53.192;8.184;2023-08-01T04:40:10;15.70;99.90
17529;DHT22;8882;53.192;8.184;2023-08-01T04:42:36;15.70;99.90
17529;DHT22;8882;53.192;8.184;2023-08-01T04:45:01;15.70;99.90
17529;DHT22;8882;53.192;8.184;2023-08-01T04:47:27;15.60;99.90
17529;DHT22;8882;53.192;8.184;2023-08-01T04:49:52;15.60;99.90
17529;DHT22;8882;53.192;8.184;2023-08-01T04:52:18;15.70;99.90
17529;DHT22;8882;53.192;8.184;2023-08-01T04:54:43;15.70;99.90
17529;DHT22;8882;53.192;8.184;2023-08-01T04:57:09;15.60;99.90
17529;DHT22;8882;53.192;8.184;2023-08-01T04:59:34;15.60;99.90
17529;DHT22;8882;53.192;8.184;2023-08-01T05:02:00;15.60;99.90
17529;DHT22;8882;53.192;8.184;2023-08-01T05:04:25;15.50;99.90
17529;DHT22;8882;53.192;8.184;2023-08-01T05:06:51;15.60;99.90
17529;DHT22;8882;53.192;8.184;2023-08-01T05:09:16;15.50;99.90
17529;DHT22;8882;53.192;8.184;2023-08-01T05:11:42;15.50;99.90
17529;DHT22;8882;53.192;8.184;2023-08-01T05:14:07;15.40;99.90
17529;DHT22;8882;53.192;8.184;2023-08-01T05:16:33;15.50;99.90
17529;DHT22;8882;53.192;8.184;2023-08-01T05:18:58;15.40;99.90
17529;DHT22;8882;53.192;8.184;2023-08-01T05:21:24;15.50;99.90
17529;DHT22;8882;53.192;8.184;2023-08-01T05:23:50;15.40;99.90
17529;DHT22;8882;53.192;8.184;2023-08-01T05:26:16;15.30;99.90
17529;DHT22;8882;53.192;8.184;2023-08-01T05:28:41;15.40;99.90
17529;DHT22;8882;53.192;8.184;2023-08-01T05:31:07;15.40;99.90
17529;DHT22;8882;53.192;8.184;2023-08-01T05:33:32;15.60;99.90
17529;DHT22;8882;53.192;8.184;2023-08-01T05:35:58;15.70;99.90
17529;DHT22;8882;53.192;8.184;2023-08-01T05:38:23;15.80;99.90
17529;DHT22;8882;53.192;8.184;2023-08-01T05:40:49;15.90;99.90
17529;DHT22;8882;53.192;8.184;2023-08-01T05:43:14;16.00;99.90
17529;DHT22;8882;53.192;8.184;2023-08-01T05:45:40;16.10;99.90
17529;DHT22;8882;53.192;8.184;2023-08-01T05:48:05;16.20;99.90
17529;DHT22;8882;53.192;8.184;2023-08-01T05:50:31;16.20;99.90
17529;DHT22;8882;53.192;8.184;2023-08-01T05:52:56;16.20;99.90
17529;DHT22;8882;53.192;8.184;2023-08-01T05:55:22;16.20;99.90
17529;DHT22;8882;53.192;8.184;2023-08-01T05:57:47;16.20;99.90
17529;DHT22;8882;53.192;8.184;2023-08-01T06:00:18;16.20;99.90
17529;DHT22;8882;53.192;8.184;2023-08-01T06:02:46;16.10;99.90
17529;DHT22;8882;53.192;8.184;2023-08-01T06:05:11;16.20;99.90
17529;DHT22;8882;53.192;8.184;2023-08-01T06:07:37;16.20;99.90
17529;DHT22;8882;53.192;8.184;2023-08-01T06:10:02;16.10;99.90
17529;DHT22;8882;53.192;8.184;2023-08-01T06:12:29;16.20;99.90
17529;DHT22;8882;53.192;8.184;2023-08-01T06:14:55;16.10;99.90
17529;DHT22;8882;53.192;8.184;2023-08-01T06:17:20;16.10;99.90
17529;DHT22;8882;53.192;8.184;2023-08-01T06:19:46;16.00;99.90
17529;DHT22;8882;53.192;8.184;2023-08-01T06:22:11;16.00;99.90
17529;DHT22;8882;53.192;8.184;2023-08-01T06:24:37;16.00;99.90
17529;DHT22;8882;53.192;8.184;2023-08-01T06:27:02;16.00;99.90
17529;DHT22;8882;53.192;8.184;2023-08-01T06:29:28;16.00;99.90
17529;DHT22;8882;53.192;8.184;2023-08-01T06:31:53;16.00;99.90
17529;DHT22;8882;53.192;8.184;2023-08-01T06:34:19;16.00;99.90
17529;DHT22;8882;53.192;8.184;2023-08-01T06:36:44;16.00;99.90
17529;DHT22;8882;53.192;8.184;2023-08-01T06:39:10;16.10;99.90
17529;DHT22;8882;53.192;8.184;2023-08-01T06:41:36;16.30;99.90
17529;DHT22;8882;53.192;8.184;2023-08-01T06:44:02;16.40;99.90
17529;DHT22;8882;53.192;8.184;2023-08-01T06:46:27;16.50;99.90
17529;DHT22;8882;53.192;8.184;2023-08-01T06:48:53;16.60;99.90
17529;DHT22;8882;53.192;8.184;2023-08-01T06:51:18;16.70;99.90
17529;DHT22;8882;53.192;8.184;2023-08-01T06:53:45;16.70;99.90
17529;DHT22;8882;53.192;8.184;2023-08-01T06:56:11;16.60;99.90
17529;DHT22;8882;53.192;8.184;2023-08-01T06:58:37;16.50;99.90
17529;DHT22;8882;53.192;8.184;2023-08-01T07:01:02;16.40;99.90
17529;DHT22;8882;53.192;8.184;2023-08-01T07:03:28;16.30;99.90
17529;DHT22;8882;53.192;8.184;2023-08-01T07:05:53;16.40;99.90
17529;DHT22;8882;53.192;8.184;2023-08-01T07:08:19;16.40;99.90
17529;DHT22;8882;53.192;8.184;2023-08-01T07:10:46;16.40;99.90
17529;DHT22;8882;53.192;8.184;2023-08-01T07:13:12;16.30;99.90
17529;DHT22;8882;53.192;8.184;2023-08-01T07:15:37;16.40;99.90
17529;DHT22;8882;53.192;8.184;2023-08-01T07:18:03;16.60;99.90
17529;DHT22;8882;53.192;8.184;2023-08-01T07:20:29;16.70;99.90
17529;DHT22;8882;53.192;8.184;2023-08-01T07:22:54;16.80;99.90
17529;DHT22;8882;53.192;8.184;2023-08-01T07:25:19;16.80;99.90
17529;DHT22;8882;53.192;8.184;2023-08-01T07:27:46;16.80;99.90
17529;DHT22;8882;53.192;8.184;2023-08-01T07:30:11;16.90;99.90
17529;DHT22;8882;53.192;8.184;2023-08-01T07:32:37;17.00;99.90
17529;DHT22;8882;53.192;8.184;2023-08-01T07:35:04;17.10;99.90
17529;DHT22;8882;53.192;8.184;2023-08-01T07:37:30;17.30;99.90
17529;DHT22;8882;53.192;8.184;2023-08-01T07:39:56;17.40;99.90
17529;DHT22;8882;53.192;8.184;2023-08-01T07:42:22;17.30;99.90
17529;DHT22;8882;53.192;8.184;2023-08-01T07:44:47;17.30;99.90
17529;DHT22;8882;53.192;8.184;2023-08-01T07:47:13;17.30;99.90
17529;DHT22;8882;53.192;8.184;2023-08-01T07:49:39;17.30;99.90
17529;DHT22;8882;53.192;8.184;2023-08-01T07:52:04;17.20;99.90
17529;DHT22;8882;53.192;8.184;2023-08-01T07:54:30;17.20;99.90
17529;DHT22;8882;53.192;8.184;2023-08-01T07:56:55;17.20;99.90
17529;DHT22;8882;53.192;8.184;2023-08-01T07:59:21;17.20;99.90
17529;DHT22;8882;53.192;8.184;2023-08-01T08:01:46;17.40;99.90
17529;DHT22;8882;53.192;8.184;2023-08-01T08:04:12;17.40;99.90
17529;DHT22;8882;53.192;8.184;2023-08-01T08:06:40;17.40;99.90
17529;DHT22;8882;53.192;8.184;2023-08-01T08:09:05;17.40;99.90
17529;DHT22;8882;53.192;8.184;2023-08-01T08:11:31;17.30;99.90
17529;DHT22;8882;53.192;8.184;2023-08-01T08:13:57;17.30;99.90
17529;DHT22;8882;53.192;8.184;2023-08-01T08:16:22;17.30;99.90
17529;DHT22;8882;53.192;8.184;2023-08-01T08:18:48;17.30;99.90
17529;DHT22;8882;53.192;8.184;2023-08-01T08:21:13;17.60;99.90
17529;DHT22;8882;53.192;8.184;2023-08-01T08:23:39;17.80;99.90
17529;DHT22;8882;53.192;8.184;2023-08-01T08:26:04;17.90;99.90
17529;DHT22;8882;53.192;8.184;2023-08-01T08:28:34;17.80;99.90
17529;DHT22;8882;53.192;8.184;2023-08-01T08:31:00;17.80;99.90
17529;DHT22;8882;53.192;8.184;2023-08-01T08:33:27;17.90;99.90
17529;DHT22;8882;53.192;8.184;2023-08-01T08:35:53;18.00;99.90
17529;DHT22;8882;53.192;8.184;2023-08-01T08:38:18;18.50;99.90
17529;DHT22;8882;53.192;8.184;2023-08-01T08:40:56;18.50;99.90
17529;DHT22;8882;53.192;8.184;2023-08-01T08:43:26;18.70;99.90
17529;DHT22;8882;53.192;8.184;2023-08-01T08:45:53;18.80;99.90
17529;DHT22;8882;53.192;8.184;2023-08-01T08:48:22;18.60;99.90
17529;DHT22;8882;53.192;8.184;2023-08-01T08:50:48;18.60;99.90
17529;DHT22;8882;53.192;8.184;2023-08-01T08:53:14;18.60;99.90
17529;DHT22;8882;53.192;8.184;2023-08-01T08:55:41;18.60;99.90
17529;DHT22;8882;53.192;8.184;2023-08-01T08:58:07;18.60;99.90
17529;DHT22;8882;53.192;8.184;2023-08-01T09:00:35;18.70;99.90
17529;DHT22;8882;53.192;8.184;2023-08-01T09:03:03;19.00;99.90
17529;DHT22;8882;53.192;8.184;2023-08-01T09:05:31;19.00;99.90
17529;DHT22;8882;53.192;8.184;2023-08-01T09:08:01;19.00;99.90
17529;DHT22;8882;53.192;8.184;2023-08-01T09:10:31;19.00;99.90
17529;DHT22;8882;53.192;8.184;2023-08-01T09:12:57;18.90;99.90
17529;DHT22;8882;53.192;8.184;2023-08-01T09:15:24;18.50;99.90
17529;DHT22;8882;53.192;8.184;2023-08-01T09:17:51;18.10;99.90
17529;DHT22;8882;53.192;8.184;2023-08-01T09:20:17;18.10;99.90
17529;DHT22;8882;53.192;8.184;2023-08-01T09:22:47;17.90;99.90
17529;DHT22;8882;53.192;8.184;2023-08-01T09:25:13;17.80;99.90
17529;DHT22;8882;53.192;8.184;2023-08-01T09:27:39;17.80;99.90
17529;DHT22;8882;53.192;8.184;2023-08-01T09:30:09;17.70;99.90
17529;DHT22;8882;53.192;8.184;2023-08-01T09:32:37;17.80;99.90
17529;DHT22;8882;53.192;8.184;2023-08-01T09:35:02;17.90;99.90
17529;DHT22;8882;53.192;8.184;2023-08-01T09:37:38;17.90;99.90
17529;DHT22;8882;53.192;8.184;2023-08-01T09:40:05;18.10;99.90
17529;DHT22;8882;53.192;8.184;2023-08-01T09:42:41;18.10;99.90
17529;DHT22;8882;53.192;8.184;2023-08-01T09:47:45;18.20;99.90
17529;DHT22;8882;53.192;8.184;2023-08-01T09:50:11;18.30;99.90
17529;DHT22;8882;53.192;8.184;2023-08-01T09:52:38;18.40;99.90
17529;DHT22;8882;53.192;8.184;2023-08-01T09:55:04;18.40;99.90
17529;DHT22;8882;53.192;8.184;2023-08-01T09:57:31;18.30;99.90
17529;DHT22;8882;53.192;8.184;2023-08-01T09:59:58;18.10;99.90
17529;DHT22;8882;53.192;8.184;2023-08-01T10:02:30;18.10;99.90
17529;DHT22;8882;53.192;8.184;2023-08-01T10:04:58;18.00;99.90
17529;DHT22;8882;53.192;8.184;2023-08-01T10:07:26;17.80;99.90
17529;DHT22;8882;53.192;8.184;2023-08-01T10:09:58;17.50;99.90
17529;DHT22;8882;53.192;8.184;2023-08-01T10:12:26;17.30;99.90
17529;DHT22;8882;53.192;8.184;2023-08-01T10:14:52;17.20;99.90
17529;DHT22;8882;53.192;8.184;2023-08-01T10:17:18;17.30;99.90
17529;DHT22;8882;53.192;8.184;2023-08-01T10:19:44;17.50;99.90
17529;DHT22;8882;53.192;8.184;2023-08-01T10:22:12;17.60;99.90
17529;DHT22;8882;53.192;8.184;2023-08-01T10:24:39;17.60;99.90
17529;DHT22;8882;53.192;8.184;2023-08-01T10:27:15;17.70;99.90
17529;DHT22;8882;53.192;8.184;2023-08-01T10:29:41;17.50;99.90
17529;DHT22;8882;53.192;8.184;2023-08-01T10:32:07;17.40;99.90
17529;DHT22;8882;53.192;8.184;2023-08-01T10:34:33;17.40;99.90
17529;DHT22;8882;53.192;8.184;2023-08-01T10:36:58;17.50;99.90
17529;DHT22;8882;53.192;8.184;2023-08-01T10:39:26;17.60;99.90
17529;DHT22;8882;53.192;8.184;2023-08-01T10:42:03;17.80;99.90
17529;DHT22;8882;53.192;8.184;2023-08-01T10:44:30;17.90;99.90
17529;DHT22;8882;53.192;8.184;2023-08-01T10:47:00;18.10;99.90
17529;DHT22;8882;53.192;8.184;2023-08-01T10:49:41;18.20;99.90
17529;DHT22;8882;53.192;8.184;2023-08-01T10:52:21;18.20;99.90
17529;DHT22;8882;53.192;8.184;2023-08-01T10:54:59;18.10;99.90
17529;DHT22;8882;53.192;8.184;2023-08-01T10:57:26;18.20;99.90
17529;DHT22;8882;53.192;8.184;2023-08-01T10:59:52;18.40;99.90
17529;DHT22;8882;53.192;8.184;2023-08-01T11:02:22;18.60;99.90
17529;DHT22;8882;53.192;8.184;2023-08-01T11:05:05;18.60;99.90
17529;DHT22;8882;53.192;8.184;2023-08-01T11:07:32;18.80;99.90
17529;DHT22;8882;53.192;8.184;2023-08-01T11:10:04;18.70;99.90
17529;DHT22;8882;53.192;8.184;2023-08-01T11:12:34;18.70;99.90
17529;DHT22;8882;53.192;8.184;2023-08-01T11:15:00;18.70;99.90
17529;DHT22;8882;53.192;8.184;2023-08-01T11:17:26;18.70;99.90
17529;DHT22;8882;53.192;8.184;2023-08-01T11:19:51;18.70;99.90
17529;DHT22;8882;53.192;8.184;2023-08-01T11:22:17;18.60;99.90
17529;DHT22;8882;53.192;8.184;2023-08-01T11:24:50;18.60;99.90
17529;DHT22;8882;53.192;8.184;2023-08-01T11:27:15;18.70;99.90
17529;DHT22;8882;53.192;8.184;2023-08-01T11:29:41;18.70;99.90
17529;DHT22;8882;53.192;8.184;2023-08-01T11:32:06;18.60;99.90
17529;DHT22;8882;53.192;8.184;2023-08-01T11:34:39;18.30;99.90
17529;DHT22;8882;53.192;8.184;2023-08-01T11:37:06;18.00;99.90
17529;DHT22;8882;53.192;8.184;2023-08-01T11:39:32;17.70;99.90
17529;DHT22;8882;53.192;8.184;2023-08-01T11:41:58;17.60;99.90
17529;DHT22;8882;53.192;8.184;2023-08-01T11:44:24;17.50;99.90
17529;DHT22;8882;53.192;8.184;2023-08-01T11:46:49;17.60;99.90
17529;DHT22;8882;53.192;8.184;2023-08-01T11:49:15;17.80;99.90
17529;DHT22;8882;53.192;8.184;2023-08-01T11:51:43;18.00;99.90
17529;DHT22;8882;53.192;8.184;2023-08-01T11:54:10;18.20;99.90
17529;DHT22;8882;53.192;8.184;2023-08-01T11:56:37;18.30;99.90
17529;DHT22;8882;53.192;8.184;2023-08-01T11:59:10;18.50;99.90
17529;DHT22;8882;53.192;8.184;2023-08-01T12:01:40;18.50;99.90
17529;DHT22;8882;53.192;8.184;2023-08-01T12:04:06;18.70;99.90
17529;DHT22;8882;53.192;8.184;2023-08-01T12:06:32;18.80;99.90
17529;DHT22;8882;53.192;8.184;2023-08-01T12:09:10;18.80;99.90
17529;DHT22;8882;53.192;8.184;2023-08-01T12:11:36;18.90;99.90
17529;DHT22;8882;53.192;8.184;2023-08-01T12:14:07;18.80;99.90
17529;DHT22;8882;53.192;8.184;2023-08-01T12:16:35;18.70;99.90
17529;DHT22;8882;53.192;8.184;2023-08-01T12:19:01;18.60;99.90
17529;DHT22;8882;53.192;8.184;2023-08-01T12:21:26;18.60;99.90
17529;DHT22;8882;53.192;8.184;2023-08-01T12:23:52;18.40;99.90
17529;DHT22;8882;53.192;8.184;2023-08-01T12:26:17;18.20;99.90
17529;DHT22;8882;53.192;8.184;2023-08-01T12:28:43;18.10;99.90
17529;DHT22;8882;53.192;8.184;2023-08-01T12:31:08;17.90;99.90
17529;DHT22;8882;53.192;8.184;2023-08-01T12:33:34;17.80;99.90
17529;DHT22;8882;53.192;8.184;2023-08-01T12:36:00;17.80;99.90
17529;DHT22;8882;53.192;8.184;2023-08-01T12:38:26;17.70;99.90
17529;DHT22;8882;53.192;8.184;2023-08-01T12:40:52;17.70;99.90
17529;DHT22;8882;53.192;8.184;2023-08-01T12:43:17;17.70;99.90
17529;DHT22;8882;53.192;8.184;2023-08-01T12:45:43;17.70;99.90
17529;DHT22;8882;53.192;8.184;2023-08-01T12:48:08;17.70;99.90
17529;DHT22;8882;53.192;8.184;2023-08-01T12:50:34;17.80;99.90
17529;DHT22;8882;53.192;8.184;2023-08-01T12:52:59;17.90;99.90
17529;DHT22;8882;53.192;8.184;2023-08-01T12:55:25;17.80;99.90
17529;DHT22;8882;53.192;8.184;2023-08-01T12:57:50;17.80;99.90
17529;DHT22;8882;53.192;8.184;2023-08-01T13:00:16;17.90;99.90
17529;DHT22;8882;53.192;8.184;2023-08-01T13:02:42;18.10;99.90
17529;DHT22;8882;53.192;8.184;2023-08-01T13:05:08;18.30;99.90
17529;DHT22;8882;53.192;8.184;2023-08-01T13:07:33;18.40;99.90
17529;DHT22;8882;53.192;8.184;2023-08-01T13:10:00;18.50;99.90
17529;DHT22;8882;53.192;8.184;2023-08-01T13:12:26;18.60;99.90
17529;DHT22;8882;53.192;8.184;2023-08-01T13:14:51;18.80;99.90
17529;DHT22;8882;53.192;8.184;2023-08-01T13:17:17;18.80;99.90
17529;DHT22;8882;53.192;8.184;2023-08-01T13:19:43;18.70;99.90
17529;DHT22;8882;53.192;8.184;2023-08-01T13:22:09;18.70;99.90
17529;DHT22;8882;53.192;8.184;2023-08-01T13:24:34;18.80;99.90
17529;DHT22;8882;53.192;8.184;2023-08-01T13:27:00;19.00;99.90
17529;DHT22;8882;53.192;8.184;2023-08-01T13:29:25;19.10;99.90
17529;DHT22;8882;53.192;8.184;2023-08-01T13:31:50;19.10;99.90
17529;DHT22;8882;53.192;8.184;2023-08-01T13:34:16;19.10;99.90
17529;DHT22;8882;53.192;8.184;2023-08-01T13:36:43;19.10;99.90
17529;DHT22;8882;53.192;8.184;2023-08-01T13:39:08;19.10;99.90
17529;DHT22;8882;53.192;8.184;2023-08-01T13:41:34;19.10;99.90
17529;DHT22;8882;53.192;8.184;2023-08-01T13:43:59;19.20;99.90
17529;DHT22;8882;53.192;8.184;2023-08-01T13:46:25;19.30;99.90
17529;DHT22;8882;53.192;8.184;2023-08-01T13:48:50;19.50;99.90
17529;DHT22;8882;53.192;8.184;2023-08-01T13:51:16;19.50;99.90
17529;DHT22;8882;53.192;8.184;2023-08-01T13:53:42;19.70;99.90
17529;DHT22;8882;53.192;8.184;2023-08-01T13:56:11;19.80;99.90
17529;DHT22;8882;53.192;8.184;2023-08-01T13:58:40;19.90;99.90
17529;DHT22;8882;53.192;8.184;2023-08-01T14:01:07;20.10;99.90
17529;DHT22;8882;53.192;8.184;2023-08-01T14:03:39;20.00;99.90
17529;DHT22;8882;53.192;8.184;2023-08-01T14:06:09;19.80;99.90
17529;DHT22;8882;53.192;8.184;2023-08-01T14:08:35;19.80;99.90
17529;DHT22;8882;53.192;8.184;2023-08-01T14:11:02;19.80;99.90
17529;DHT22;8882;53.192;8.184;2023-08-01T14:13:28;19.80;99.90
17529;DHT22;8882;53.192;8.184;2023-08-01T14:15:53;19.60;99.90
17529;DHT22;8882;53.192;8.184;2023-08-01T14:18:19;19.30;99.90
17529;DHT22;8882;53.192;8.184;2023-08-01T14:20:44;19.20;99.90
17529;DHT22;8882;53.192;8.184;2023-08-01T14:23:10;19.10;99.90
17529;DHT22;8882;53.192;8.184;2023-08-01T14:25:35;18.90;99.90
17529;DHT22;8882;53.192;8.184;2023-08-01T14:28:01;18.90;99.90
17529;DHT22;8882;53.192;8.184;2023-08-01T14:30:27;18.70;99.90
17529;DHT22;8882;53.192;8.184;2023-08-01T14:33:03;18.50;99.90
17529;DHT22;8882;53.192;8.184;2023-08-01T14:35:29;18.20;99.90
17529;DHT22;8882;53.192;8.184;2023-08-01T14:37:55;18.10;99.90
17529;DHT22;8882;53.192;8.184;2023-08-01T14:40:21;18.10;99.90
17529;DHT22;8882;53.192;8.184;2023-08-01T14:42:47;18.10;99.90
17529;DHT22;8882;53.192;8.184;2023-08-01T14:45:13;18.20;99.90
17529;DHT22;8882;53.192;8.184;2023-08-01T14:47:39;18.20;99.90
17529;DHT22;8882;53.192;8.184;2023-08-01T14:50:06;18.40;99.90
17529;DHT22;8882;53.192;8.184;2023-08-01T14:52:31;18.40;99.90
17529;DHT22;8882;53.192;8.184;2023-08-01T14:54:57;18.30;99.90
17529;DHT22;8882;53.192;8.184;2023-08-01T14:57:23;18.40;99.90
17529;DHT22;8882;53.192;8.184;2023-08-01T14:59:48;18.30;99.90
17529;DHT22;8882;53.192;8.184;2023-08-01T15:02:14;18.30;99.90
17529;DHT22;8882;53.192;8.184;2023-08-01T15:04:40;18.30;99.90
17529;DHT22;8882;53.192;8.184;2023-08-01T15:07:05;18.30;99.90
17529;DHT22;8882;53.192;8.184;2023-08-01T15:09:31;18.30;99.90
17529;DHT22;8882;53.192;8.184;2023-08-01T15:11:57;18.40;99.90
17529;DHT22;8882;53.192;8.184;2023-08-01T15:14:22;18.50;99.90
17529;DHT22;8882;53.192;8.184;2023-08-01T15:16:48;18.50;99.90
17529;DHT22;8882;53.192;8.184;2023-08-01T15:19:14;18.50;99.90
17529;DHT22;8882;53.192;8.184;2023-08-01T15:21:40;18.40;99.90
17529;DHT22;8882;53.192;8.184;2023-08-01T15:24:05;18.50;99.90
17529;DHT22;8882;53.192;8.184;2023-08-01T15:26:31;18.40;99.90
17529;DHT22;8882;53.192;8.184;2023-08-01T15:28:56;18.30;99.90
17529;DHT22;8882;53.192;8.184;2023-08-01T15:31:22;18.30;99.90
17529;DHT22;8882;53.192;8.184;2023-08-01T15:33:47;18.40;99.90
17529;DHT22;8882;53.192;8.184;2023-08-01T15:36:13;18.40;99.90
17529;DHT22;8882;53.192;8.184;2023-08-01T15:38:39;18.50;99.90
17529;DHT22;8882;53.192;8.184;2023-08-01T15:41:05;18.50;99.90
17529;DHT22;8882;53.192;8.184;2023-08-01T15:43:40;18.60;99.90
17529;DHT22;8882;53.192;8.184;2023-08-01T15:46:07;18.60;99.90
17529;DHT22;8882;53.192;8.184;2023-08-01T15:48:33;18.50;99.90
17529;DHT22;8882;53.192;8.184;2023-08-01T15:50:59;18.40;99.90
17529;DHT22;8882;53.192;8.184;2023-08-01T15:53:25;18.40;99.90
17529;DHT22;8882;53.192;8.184;2023-08-01T15:55:58;18.10;99.90
17529;DHT22;8882;53.192;8.184;2023-08-01T15:58:25;18.00;99.90
17529;DHT22;8882;53.192;8.184;2023-08-01T16:00:50;17.70;99.90
17529;DHT22;8882;53.192;8.184;2023-08-01T16:03:16;17.80;99.90
17529;DHT22;8882;53.192;8.184;2023-08-01T16:05:41;17.80;99.90
17529;DHT22;8882;53.192;8.184;2023-08-01T16:08:07;17.90;99.90
17529;DHT22;8882;53.192;8.184;2023-08-01T16:10:32;17.90;99.90
17529;DHT22;8882;53.192;8.184;2023-08-01T16:12:58;17.90;99.90
17529;DHT22;8882;53.192;8.184;2023-08-01T16:15:23;17.90;99.90
17529;DHT22;8882;53.192;8.184;2023-08-01T16:17:49;17.90;99.90
17529;DHT22;8882;53.192;8.184;2023-08-01T16:20:15;17.90;99.90
17529;DHT22;8882;53.192;8.184;2023-08-01T16:22:41;17.80;99.90
17529;DHT22;8882;53.192;8.184;2023-08-01T16:25:07;17.70;99.90
17529;DHT22;8882;53.192;8.184;2023-08-01T16:27:32;17.70;99.90
17529;DHT22;8882;53.192;8.184;2023-08-01T16:29:58;17.70;99.90
17529;DHT22;8882;53.192;8.184;2023-08-01T16:32:23;17.70;99.90
17529;DHT22;8882;53.192;8.184;2023-08-01T16:34:49;17.60;99.90
17529;DHT22;8882;53.192;8.184;2023-08-01T16:37:14;17.50;99.90
17529;DHT22;8882;53.192;8.184;2023-08-01T16:39:40;17.40;99.90
17529;DHT22;8882;53.192;8.184;2023-08-01T16:42:07;17.40;99.90
17529;DHT22;8882;53.192;8.184;2023-08-01T16:44:33;17.50;99.90
17529;DHT22;8882;53.192;8.184;2023-08-01T16:47:00;17.40;99.90
17529;DHT22;8882;53.192;8.184;2023-08-01T16:49:25;17.40;99.90
17529;DHT22;8882;53.192;8.184;2023-08-01T16:51:51;17.40;99.90
17529;DHT22;8882;53.192;8.184;2023-08-01T16:54:17;17.40;99.90
17529;DHT22;8882;53.192;8.184;2023-08-01T16:56:42;17.50;99.90
17529;DHT22;8882;53.192;8.184;2023-08-01T16:59:08;17.40;99.90
17529;DHT22;8882;53.192;8.184;2023-08-01T17:01:33;17.40;99.90
17529;DHT22;8882;53.192;8.184;2023-08-01T17:03:59;17.40;99.90
17529;DHT22;8882;53.192;8.184;2023-08-01T17:06:24;17.40;99.90
17529;DHT22;8882;53.192;8.184;2023-08-01T17:08:50;17.40;99.90
17529;DHT22;8882;53.192;8.184;2023-08-01T17:11:15;17.40;99.90
17529;DHT22;8882;53.192;8.184;2023-08-01T17:13:40;17.40;99.90
17529;DHT22;8882;53.192;8.184;2023-08-01T17:16:06;17.40;99.90
17529;DHT22;8882;53.192;8.184;2023-08-01T17:18:31;17.30;99.90
17529;DHT22;8882;53.192;8.184;2023-08-01T17:20:57;17.20;99.90
17529;DHT22;8882;53.192;8.184;2023-08-01T17:23:22;17.20;99.90
17529;DHT22;8882;53.192;8.184;2023-08-01T17:25:48;17.20;99.90
17529;DHT22;8882;53.192;8.184;2023-08-01T17:28:13;17.10;99.90
17529;DHT22;8882;53.192;8.184;2023-08-01T17:30:39;17.10;99.90
17529;DHT22;8882;53.192;8.184;2023-08-01T17:33:05;17.20;99.90
17529;DHT22;8882;53.192;8.184;2023-08-01T17:35:31;17.10;99.90
17529;DHT22;8882;53.192;8.184;2023-08-01T17:37:56;17.20;99.90
17529;DHT22;8882;53.192;8.184;2023-08-01T17:40:22;17.20;99.90
17529;DHT22;8882;53.192;8.184;2023-08-01T17:42:48;17.10;99.90
17529;DHT22;8882;53.192;8.184;2023-08-01T17:45:17;17.00;99.90
17529;DHT22;8882;53.192;8.184;2023-08-01T17:47:42;17.00;99.90
17529;DHT22;8882;53.192;8.184;2023-08-01T17:50:08;17.00;99.90
17529;DHT22;8882;53.192;8.184;2023-08-01T17:52:34;17.10;99.90
17529;DHT22;8882;53.192;8.184;2023-08-01T17:55:00;17.10;99.90
17529;DHT22;8882;53.192;8.184;2023-08-01T17:57:25;17.00;99.90
17529;DHT22;8882;53.192;8.184;2023-08-01T17:59:51;17.00;99.90
17529;DHT22;8882;53.192;8.184;2023-08-01T18:02:16;17.00;99.90
17529;DHT22;8882;53.192;8.184;2023-08-01T18:04:42;17.00;99.90
17529;DHT22;8882;53.192;8.184;2023-08-01T18:07:09;16.90;99.90
17529;DHT22;8882;53.192;8.184;2023-08-01T18:09:34;16.90;99.90
17529;DHT22;8882;53.192;8.184;2023-08-01T18:12:00;16.80;99.90
17529;DHT22;8882;53.192;8.184;2023-08-01T18:14:26;16.80;99.90
17529;DHT22;8882;53.192;8.184;2023-08-01T18:16:51;16.80;99.90
17529;DHT22;8882;53.192;8.184;2023-08-01T18:19:17;16.80;99.90
17529;DHT22;8882;53.192;8.184;2023-08-01T18:21:42;16.80;99.90
17529;DHT22;8882;53.192;8.184;2023-08-01T18:24:08;16.70;99.90
17529;DHT22;8882;53.192;8.184;2023-08-01T18:26:33;16.70;99.90
17529;DHT22;8882;53.192;8.184;2023-08-01T18:29:04;16.70;99.90
17529;DHT22;8882;53.192;8.184;2023-08-01T18:31:29;16.70;99.90
17529;DHT22;8882;53.192;8.184;2023-08-01T18:33:55;16.70;99.90
17529;DHT22;8882;53.192;8.184;2023-08-01T18:36:22;16.70;99.90
17529;DHT22;8882;53.192;8.184;2023-08-01T18:38:51;16.60;99.90
17529;DHT22;8882;53.192;8.184;2023-08-01T18:41:16;16.70;99.90
17529;DHT22;8882;53.192;8.184;2023-08-01T18:43:45;16.80;99.90
17529;DHT22;8882;53.192;8.184;2023-08-01T18:46:11;16.80;99.90
17529;DHT22;8882;53.192;8.184;2023-08-01T18:48:38;16.80;99.90
17529;DHT22;8882;53.192;8.184;2023-08-01T18:51:11;16.70;99.90
17529;DHT22;8882;53.192;8.184;2023-08-01T18:53:37;16.80;99.90
17529;DHT22;8882;53.192;8.184;2023-08-01T18:56:07;16.80;99.90
17529;DHT22;8882;53.192;8.184;2023-08-01T18:58:34;16.80;99.90
17529;DHT22;8882;53.192;8.184;2023-08-01T19:01:00;16.80;99.90
17529;DHT22;8882;53.192;8.184;2023-08-01T19:03:25;16.60;99.90
17529;DHT22;8882;53.192;8.184;2023-08-01T19:05:50;16.70;99.90
17529;DHT22;8882;53.192;8.184;2023-08-01T19:08:16;16.70;99.90
17529;DHT22;8882;53.192;8.184;2023-08-01T19:10:42;16.70;99.90
17529;DHT22;8882;53.192;8.184;2023-08-01T19:13:08;16.60;99.90
17529;DHT22;8882;53.192;8.184;2023-08-01T19:15:33;16.60;99.90
17529;DHT22;8882;53.192;8.184;2023-08-01T19:17:58;16.50;99.90
17529;DHT22;8882;53.192;8.184;2023-08-01T19:20:24;16.50;99.90
17529;DHT22;8882;53.192;8.184;2023-08-01T19:22:50;16.40;99.90
17529;DHT22;8882;53.192;8.184;2023-08-01T19:25:15;16.50;99.90
17529;DHT22;8882;53.192;8.184;2023-08-01T19:27:41;16.50;99.90
17529;DHT22;8882;53.192;8.184;2023-08-01T19:30:07;16.50;99.90
17529;DHT22;8882;53.192;8.184;2023-08-01T19:32:33;16.50;99.90
17529;DHT22;8882;53.192;8.184;2023-08-01T19:34:58;16.60;99.90
17529;DHT22;8882;53.192;8.184;2023-08-01T19:37:24;16.40;99.90
17529;DHT22;8882;53.192;8.184;2023-08-01T19:39:50;16.50;99.90
17529;DHT22;8882;53.192;8.184;2023-08-01T19:42:15;16.40;99.90
17529;DHT22;8882;53.192;8.184;2023-08-01T19:44:41;16.40;99.90
17529;DHT22;8882;53.192;8.184;2023-08-01T19:47:08;16.40;99.90
17529;DHT22;8882;53.192;8.184;2023-08-01T19:49:34;16.40;99.90
17529;DHT22;8882;53.192;8.184;2023-08-01T19:52:00;16.40;99.90
17529;DHT22;8882;53.192;8.184;2023-08-01T19:54:26;16.40;99.90
17529;DHT22;8882;53.192;8.184;2023-08-01T19:56:52;16.30;99.90
17529;DHT22;8882;53.192;8.184;2023-08-01T19:59:18;16.30;99.90
17529;DHT22;8882;53.192;8.184;2023-08-01T20:01:44;16.40;99.90
17529;DHT22;8882;53.192;8.184;2023-08-01T20:04:09;16.30;99.90
17529;DHT22;8882;53.192;8.184;2023-08-01T20:06:35;16.20;99.90
17529;DHT22;8882;53.192;8.184;2023-08-01T20:09:00;16.10;99.90
17529;DHT22;8882;53.192;8.184;2023-08-01T20:11:26;16.20;99.90